首页
METAR-TAF:

METAR-TAF

机场 :

University Park Airport

州学院, 宾夕法尼亚州, 美国

纬度: 40-51N, 经度: 077-51W, 海拔: 378米

当前天气观测

该预报发布于5小时和17分钟前的02:53 UTC
风速5节,风向
温度 -2°C
湿度 54%
气压 1031 hPa
能見度: 16.1公里
天空无云

METAR: KUNV 130253Z 19005KT 10SM SKC M02/M10 A3046

时间: 03:10 (08:10 UTC)

预报

该预报发布于2小时和13分钟前的05:57 UTC
预报有效从13日的 06点(UTC)到 14日的 06点(UTC)
风速6节,风向
能見度: 10公里
阴天层高于20000英尺
从 13日的 1500点(UTC)
风速3节,风向
能見度: 8.0公里
阴天层高于1500英尺
(小) 冻, 雨, 雪
从 13日的 1800点(UTC)
风速7节,风向南转南东
能見度: 4.8公里
阴天层高于700英尺
小雨, 轻雾

TAF: KUNV 130557Z 1306/1406 19006KT P6SM OVC200 FM131500 17003KT 5SM -FZRASN OVC015 FM131800 16007KT 3SM -RA BR OVC007 AMD NOT SKED

超过4000个机场的气象观测和天气预报(METAR&TAF报告)。

可查询的气象台以黄色和红色小点在地图上表示。

将鼠标移到小点上方,可查看气象台名称。

然后点击查看天气观测和预报。

如需切换地图:点击带黑十字的绿色按钮放大地图;点击带横线的绿色按钮缩小地图;或者点击绿色箭头查看邻近地区的地图。


METAR-TAF: